createdAt,value
2022-09-14T00:01:28.684Z,8.92
2022-09-14T00:04:01.180Z,8.94
2022-09-14T00:06:29.595Z,8.83
2022-09-14T00:08:59.066Z,9.03
2022-09-14T00:11:28.470Z,9.00
2022-09-14T00:13:57.814Z,9.03
2022-09-14T00:16:28.770Z,8.95
2022-09-14T00:19:00.688Z,9.05
2022-09-14T00:21:28.573Z,9.05
2022-09-14T00:23:55.537Z,9.06
2022-09-14T00:26:23.634Z,9.07
2022-09-14T00:28:54.360Z,8.98
2022-09-14T00:31:22.890Z,8.94
2022-09-14T00:33:51.904Z,9.02
2022-09-14T00:36:22.225Z,8.95
2022-09-14T00:38:50.568Z,9.06
2022-09-14T00:41:24.276Z,9.11
2022-09-14T00:44:11.661Z,9.10
2022-09-14T00:46:41.071Z,9.10
2022-09-14T00:49:12.777Z,9.11
2022-09-14T00:51:45.573Z,9.12
2022-09-14T00:54:12.591Z,9.00
2022-09-14T00:56:39.548Z,9.11
2022-09-14T00:59:16.337Z,9.03
2022-09-14T01:01:45.003Z,9.13
2022-09-14T01:04:12.157Z,8.82
2022-09-14T01:06:47.474Z,9.13
2022-09-14T01:09:38.833Z,9.16
2022-09-14T01:12:22.755Z,8.74
2022-09-14T01:15:21.730Z,9.16
2022-09-14T01:18:31.737Z,9.16
2022-09-14T01:21:09.551Z,9.11
2022-09-14T01:23:55.726Z,9.13
2022-09-14T01:26:52.013Z,9.16
2022-09-14T01:29:46.918Z,9.14
2022-09-14T01:32:17.495Z,9.15
2022-09-14T01:35:01.659Z,9.08
2022-09-14T01:37:51.563Z,9.14
2022-09-14T01:40:33.644Z,9.12
2022-09-14T01:43:11.026Z,8.98
2022-09-14T01:45:42.431Z,9.10
2022-09-14T01:48:12.185Z,8.80
2022-09-14T01:50:46.811Z,9.15
2022-09-14T01:53:34.882Z,8.99
2022-09-14T01:56:15.447Z,8.87
2022-09-14T01:58:47.694Z,9.13
2022-09-14T02:01:26.713Z,8.97
2022-09-14T02:04:04.431Z,8.69
2022-09-14T02:06:31.840Z,9.12
2022-09-14T02:09:00.716Z,9.03
2022-09-14T02:11:27.887Z,9.04
2022-09-14T02:13:55.008Z,9.06
2022-09-14T02:16:23.805Z,9.09
2022-09-14T02:18:51.055Z,9.09
2022-09-14T02:21:24.677Z,8.97
2022-09-14T02:23:52.297Z,9.08
2022-09-14T02:26:21.737Z,9.10
2022-09-14T02:28:49.321Z,8.96
2022-09-14T02:31:27.495Z,9.09
2022-09-14T02:34:23.867Z,9.09
2022-09-14T02:36:57.325Z,9.08
2022-09-14T02:39:35.633Z,9.09
2022-09-14T02:42:31.127Z,9.06
2022-09-14T02:45:17.405Z,9.09
2022-09-14T02:47:55.607Z,8.85
2022-09-14T02:50:47.923Z,9.10
2022-09-14T02:53:38.905Z,9.11
2022-09-14T02:56:09.255Z,9.11
2022-09-14T02:58:38.802Z,9.10
2022-09-14T03:01:07.801Z,8.98
2022-09-14T03:03:35.885Z,8.99
2022-09-14T03:06:04.374Z,9.04
2022-09-14T03:08:32.597Z,9.07
2022-09-14T03:11:00.063Z,9.13
2022-09-14T03:13:27.410Z,9.14
2022-09-14T03:15:55.769Z,8.97
2022-09-14T03:18:23.593Z,9.05
2022-09-14T03:20:50.785Z,9.03
2022-09-14T03:23:17.937Z,9.04
2022-09-14T03:25:45.383Z,9.17
2022-09-14T03:28:13.214Z,9.06
2022-09-14T03:30:40.249Z,9.20
2022-09-14T03:33:07.345Z,9.12
2022-09-14T03:35:34.824Z,9.21
2022-09-14T03:38:03.419Z,9.23
2022-09-14T03:40:30.605Z,9.25
2022-09-14T03:42:57.832Z,9.27
2022-09-14T03:45:24.906Z,9.02
2022-09-14T03:47:52.307Z,9.27
2022-09-14T03:50:20.103Z,9.31
2022-09-14T03:52:47.301Z,9.32
2022-09-14T03:55:14.410Z,9.35
2022-09-14T03:57:41.620Z,9.31
2022-09-14T04:00:09.142Z,9.38
2022-09-14T04:02:39.924Z,9.41
2022-09-14T04:05:07.478Z,9.36
2022-09-14T04:07:34.575Z,9.33
2022-09-14T04:10:02.024Z,9.40
2022-09-14T04:12:35.323Z,9.31
2022-09-14T04:15:02.283Z,9.20
2022-09-14T04:17:30.055Z,9.55
2022-09-14T04:19:57.164Z,9.57
2022-09-14T04:22:24.307Z,9.58
2022-09-14T04:24:51.327Z,9.39
2022-09-14T04:27:18.273Z,9.50
2022-09-14T04:29:45.518Z,9.45
2022-09-14T04:32:12.544Z,9.43
2022-09-14T04:34:39.663Z,9.03
2022-09-14T04:37:07.341Z,9.37
2022-09-14T04:39:34.394Z,9.66
2022-09-14T04:42:01.440Z,9.44
2022-09-14T04:44:28.480Z,9.49
2022-09-14T04:46:55.576Z,9.73
2022-09-14T04:49:22.654Z,9.44
2022-09-14T04:51:49.988Z,9.66
2022-09-14T04:54:18.295Z,9.53
2022-09-14T04:56:45.807Z,9.80
2022-09-14T04:59:13.700Z,9.68
2022-09-14T05:01:43.421Z,9.79
2022-09-14T05:04:11.641Z,9.81
2022-09-14T05:06:40.639Z,9.83
2022-09-14T05:09:13.573Z,9.67
2022-09-14T05:11:40.856Z,9.89
2022-09-14T05:14:10.992Z,9.87
2022-09-14T05:16:39.346Z,9.81
2022-09-14T05:19:09.468Z,9.95
2022-09-14T05:21:37.843Z,9.96
2022-09-14T05:24:14.921Z,9.89
2022-09-14T05:26:43.733Z,10.03
2022-09-14T05:29:16.190Z,9.98
2022-09-14T05:31:44.131Z,9.92
2022-09-14T05:34:11.881Z,9.95
2022-09-14T05:36:40.286Z,10.15
2022-09-14T05:39:08.583Z,10.19
2022-09-14T05:41:37.551Z,10.24
2022-09-14T05:44:05.583Z,10.08
2022-09-14T05:46:33.261Z,10.17
2022-09-14T05:49:00.496Z,10.22
2022-09-14T05:51:28.293Z,10.26
2022-09-14T05:53:58.491Z,10.24
2022-09-14T05:56:30.142Z,10.34
2022-09-14T05:58:58.320Z,10.37
2022-09-14T06:01:28.493Z,10.36
2022-09-14T06:04:02.472Z,10.29
2022-09-14T06:06:31.155Z,10.24
2022-09-14T06:08:58.904Z,10.48
2022-09-14T06:11:31.722Z,10.58
2022-09-14T06:13:59.437Z,10.62
2022-09-14T06:16:28.418Z,10.39
2022-09-14T06:18:57.639Z,10.65
2022-09-14T06:21:29.462Z,10.70
2022-09-14T06:23:56.814Z,10.77
2022-09-14T06:26:25.676Z,10.84
2022-09-14T06:28:53.629Z,10.84
2022-09-14T06:31:22.775Z,10.76
2022-09-14T06:33:51.913Z,10.99
2022-09-14T06:36:21.975Z,11.02
2022-09-14T06:38:50.288Z,10.91
2022-09-14T06:41:22.992Z,10.88
2022-09-14T06:43:50.947Z,10.62
2022-09-14T06:46:27.269Z,10.68
2022-09-14T06:49:05.748Z,10.68
2022-09-14T06:51:36.105Z,10.70
2022-09-14T06:54:03.407Z,10.67
2022-09-14T06:56:38.548Z,10.61
2022-09-14T06:59:08.125Z,10.60
2022-09-14T07:01:35.305Z,10.56
2022-09-14T07:04:03.548Z,10.62
2022-09-14T07:06:33.531Z,10.58
2022-09-14T07:09:05.147Z,10.46
2022-09-14T07:11:32.925Z,10.52
2022-09-14T07:14:00.566Z,10.56
2022-09-14T07:16:29.217Z,10.62
2022-09-14T07:19:03.063Z,10.58
2022-09-14T07:21:31.951Z,10.58
2022-09-14T07:23:59.252Z,10.51
2022-09-14T07:26:31.426Z,10.53
2022-09-14T07:29:01.455Z,10.69
2022-09-14T07:31:30.197Z,10.71
2022-09-14T07:34:00.043Z,10.80
2022-09-14T07:36:31.573Z,10.79
2022-09-14T07:39:02.835Z,11.00
2022-09-14T07:41:31.226Z,10.97
2022-09-14T07:44:00.739Z,11.08
2022-09-14T07:46:29.926Z,11.25
2022-09-14T07:48:59.438Z,11.45
2022-09-14T07:51:28.236Z,11.73
2022-09-14T07:53:55.705Z,11.56
2022-09-14T07:56:22.781Z,11.87
2022-09-14T07:58:55.432Z,11.92
2022-09-14T08:01:40.715Z,11.66
2022-09-14T08:04:09.470Z,12.01
2022-09-14T08:06:37.408Z,12.08
2022-09-14T08:09:08.996Z,12.06
2022-09-14T08:11:37.012Z,12.15
2022-09-14T08:14:12.009Z,12.19
2022-09-14T08:16:40.845Z,12.19
2022-09-14T08:19:12.677Z,12.08
2022-09-14T08:21:44.106Z,12.07
2022-09-14T08:24:15.718Z,11.97
2022-09-14T08:26:42.966Z,11.86
2022-09-14T08:29:10.058Z,11.88
2022-09-14T08:31:39.133Z,11.78
2022-09-14T08:34:07.549Z,11.76
2022-09-14T08:36:39.783Z,11.71
2022-09-14T08:39:09.466Z,11.71
2022-09-14T08:41:47.266Z,11.74
2022-09-14T08:44:32.527Z,11.75
2022-09-14T08:46:59.907Z,11.80
2022-09-14T08:49:47.753Z,11.84
2022-09-14T08:52:37.665Z,11.91
2022-09-14T08:55:33.810Z,11.84
2022-09-14T08:58:12.652Z,12.00
2022-09-14T09:00:42.639Z,12.08
2022-09-14T09:03:40.674Z,12.13
2022-09-14T09:06:20.450Z,11.92
2022-09-14T09:09:14.912Z,12.01
2022-09-14T09:11:44.891Z,11.90
2022-09-14T09:14:23.799Z,11.84
2022-09-14T09:16:55.382Z,11.79
2022-09-14T09:19:32.810Z,11.56
2022-09-14T09:22:03.433Z,11.78
2022-09-14T09:24:37.952Z,11.79
2022-09-14T09:27:13.161Z,11.82
2022-09-14T09:29:40.850Z,11.66
2022-09-14T09:32:20.985Z,11.84
2022-09-14T09:35:13.172Z,11.86
2022-09-14T09:37:54.934Z,11.71
2022-09-14T09:40:36.810Z,11.72
2022-09-14T09:43:12.507Z,11.77
2022-09-14T09:45:58.335Z,11.79
2022-09-14T09:48:40.858Z,11.76
2022-09-14T09:51:32.888Z,11.75
2022-09-14T09:54:29.139Z,11.89
2022-09-14T09:56:57.792Z,12.01
2022-09-14T09:59:39.794Z,12.10
2022-09-14T10:02:29.734Z,12.16
2022-09-14T10:05:18.410Z,12.19
2022-09-14T10:08:02.416Z,12.24
2022-09-14T10:10:35.535Z,12.25
2022-09-14T10:13:06.135Z,12.29
2022-09-14T10:15:35.148Z,12.26
2022-09-14T10:18:11.250Z,12.30
2022-09-14T10:20:42.007Z,12.33
2022-09-14T10:23:18.582Z,12.22
2022-09-14T10:25:47.387Z,12.13
2022-09-14T10:28:28.324Z,12.23
2022-09-14T10:31:02.449Z,12.25
2022-09-14T10:33:30.339Z,12.43
2022-09-14T10:36:05.639Z,12.52
2022-09-14T10:38:40.521Z,12.56
2022-09-14T10:41:31.348Z,12.77
2022-09-14T10:44:01.146Z,12.82
2022-09-14T10:46:47.105Z,12.75
2022-09-14T10:49:38.147Z,12.62
2022-09-14T10:52:37.887Z,12.75
2022-09-14T10:55:32.313Z,12.71
2022-09-14T10:58:37.770Z,12.96
2022-09-14T11:01:32.565Z,13.03
2022-09-14T11:04:19.214Z,13.13
2022-09-14T11:07:08.220Z,13.22
2022-09-14T11:10:02.670Z,13.26
2022-09-14T11:12:36.379Z,13.14
2022-09-14T11:15:29.344Z,13.04
2022-09-14T11:18:08.845Z,12.92
2022-09-14T11:20:54.451Z,12.83
2022-09-14T11:23:44.358Z,12.76
2022-09-14T11:26:31.837Z,12.71
2022-09-14T11:29:13.064Z,12.61
2022-09-14T11:32:10.075Z,12.53
2022-09-14T11:34:48.154Z,12.24
2022-09-14T11:37:19.845Z,12.28
2022-09-14T11:39:54.099Z,12.35
2022-09-14T11:42:28.698Z,12.31
2022-09-14T11:45:21.164Z,12.48
2022-09-14T11:47:57.203Z,12.50
2022-09-14T11:50:31.229Z,12.93
2022-09-14T11:53:17.090Z,13.47
2022-09-14T11:55:50.755Z,14.04
2022-09-14T11:58:21.942Z,15.10
2022-09-14T12:00:53.155Z,16.39
2022-09-14T12:03:22.938Z,16.75
2022-09-14T12:05:50.817Z,17.03
2022-09-14T12:08:33.178Z,16.89
2022-09-14T12:11:08.095Z,16.68
2022-09-14T12:13:37.374Z,16.53
2022-09-14T12:16:07.920Z,16.00
2022-09-14T12:18:55.857Z,15.67
2022-09-14T12:21:26.293Z,15.22
2022-09-14T12:23:58.084Z,15.00
2022-09-14T12:26:32.018Z,14.76
2022-09-14T12:29:25.220Z,14.64
2022-09-14T12:31:52.170Z,14.69
2022-09-14T12:34:30.524Z,14.68
2022-09-14T12:37:07.522Z,14.70
2022-09-14T12:39:37.234Z,14.42
2022-09-14T12:42:28.101Z,14.25
2022-09-14T12:44:55.441Z,14.08
2022-09-14T12:47:26.227Z,14.08
2022-09-14T12:49:58.079Z,13.98
2022-09-14T12:52:55.877Z,13.94
2022-09-14T12:55:56.043Z,13.94
2022-09-14T12:58:35.104Z,13.98
2022-09-14T13:01:18.374Z,14.01
2022-09-14T13:03:55.266Z,14.01
2022-09-14T13:06:24.925Z,13.88
2022-09-14T13:08:58.323Z,13.92
2022-09-14T13:11:39.325Z,13.84
2022-09-14T13:14:13.008Z,13.93
2022-09-14T13:16:45.200Z,13.95
2022-09-14T13:19:32.892Z,13.90
2022-09-14T13:22:02.649Z,13.67
2022-09-14T13:24:42.949Z,13.57
2022-09-14T13:27:28.404Z,13.60
2022-09-14T13:30:18.115Z,13.45
2022-09-14T13:32:49.474Z,13.29
2022-09-14T13:35:18.402Z,13.35
2022-09-14T13:37:48.311Z,13.27
2022-09-14T13:40:15.867Z,13.18
2022-09-14T13:42:44.530Z,13.23
2022-09-14T13:45:13.953Z,13.20
2022-09-14T13:47:42.364Z,13.05
2022-09-14T13:50:12.800Z,13.14
2022-09-14T13:53:01.129Z,13.10
2022-09-14T13:55:43.977Z,13.11
2022-09-14T13:58:20.376Z,13.04
2022-09-14T14:01:05.884Z,12.98
2022-09-14T14:03:42.756Z,12.92
2022-09-14T14:06:21.320Z,12.80
2022-09-14T14:09:05.448Z,12.86
2022-09-14T14:11:43.217Z,12.86
2022-09-14T14:14:31.648Z,12.83
2022-09-14T14:17:20.558Z,12.91
2022-09-14T14:19:49.233Z,12.85
2022-09-14T14:22:20.040Z,12.71
2022-09-14T14:27:44.559Z,12.85
2022-09-14T14:30:25.818Z,12.83
2022-09-14T14:32:55.099Z,12.85
2022-09-14T14:35:26.716Z,12.75
2022-09-14T14:37:55.026Z,12.81
2022-09-14T14:40:24.104Z,12.69
2022-09-14T14:42:51.861Z,12.71
2022-09-14T14:45:26.611Z,12.72
2022-09-14T14:47:55.894Z,12.81
2022-09-14T14:50:26.321Z,12.79
2022-09-14T14:52:53.685Z,12.78
2022-09-14T14:55:22.322Z,12.68
2022-09-14T14:57:50.481Z,12.67
2022-09-14T15:00:22.193Z,12.68
2022-09-14T15:02:50.318Z,12.68
2022-09-14T15:05:17.985Z,12.55
2022-09-14T15:07:46.205Z,12.67
2022-09-14T15:10:16.064Z,12.64
2022-09-14T15:12:43.870Z,12.61
2022-09-14T15:15:16.722Z,12.60
2022-09-14T15:17:44.174Z,12.47
2022-09-14T15:20:12.497Z,12.56
2022-09-14T15:22:42.274Z,12.47
2022-09-14T15:25:11.188Z,12.47
2022-09-14T15:27:39.207Z,12.32
2022-09-14T15:30:09.071Z,12.33
2022-09-14T15:32:36.476Z,12.30
2022-09-14T15:35:04.660Z,12.19
2022-09-14T15:37:32.258Z,12.25
2022-09-14T15:39:59.420Z,12.18
2022-09-14T15:42:27.695Z,12.25
2022-09-14T15:44:55.383Z,12.19
2022-09-14T15:47:22.824Z,12.10
2022-09-14T15:49:55.983Z,12.17
2022-09-14T15:52:23.165Z,12.14
2022-09-14T15:54:50.270Z,12.14
2022-09-14T15:57:17.366Z,12.08
2022-09-14T15:59:44.582Z,12.09
2022-09-14T16:02:12.554Z,12.06
2022-09-14T16:04:40.363Z,11.95
2022-09-14T16:07:11.865Z,12.04
2022-09-14T16:09:40.375Z,11.98
2022-09-14T16:12:09.970Z,11.99
2022-09-14T16:14:37.644Z,11.88
2022-09-14T16:17:05.552Z,11.97
2022-09-14T16:19:33.133Z,11.95
2022-09-14T16:22:01.089Z,11.96
2022-09-14T16:24:29.772Z,11.98
2022-09-14T16:26:58.047Z,11.96
2022-09-14T16:29:26.122Z,11.98
2022-09-14T16:31:53.827Z,11.81
2022-09-14T16:34:22.250Z,11.95
2022-09-14T16:36:50.130Z,11.93
2022-09-14T16:39:22.580Z,11.90
2022-09-14T16:41:50.442Z,11.91
2022-09-14T16:44:20.913Z,11.81
2022-09-14T16:46:49.797Z,11.88
2022-09-14T16:49:19.201Z,11.86
2022-09-14T16:51:48.256Z,11.90
2022-09-14T16:54:18.229Z,11.84
2022-09-14T16:56:46.918Z,11.91
2022-09-14T16:59:15.793Z,11.90
2022-09-14T17:01:45.328Z,11.93
2022-09-14T17:04:15.090Z,11.82
2022-09-14T17:06:44.600Z,11.90
2022-09-14T17:09:18.100Z,11.77
2022-09-14T17:11:45.819Z,11.85
2022-09-14T17:14:19.301Z,11.78
2022-09-14T17:16:47.112Z,11.74
2022-09-14T17:19:15.227Z,11.66
2022-09-14T17:21:45.901Z,11.77
2022-09-14T17:24:14.960Z,11.69
2022-09-14T17:26:42.976Z,11.70
2022-09-14T17:29:13.007Z,11.72
2022-09-14T17:31:43.541Z,11.63
2022-09-14T17:34:13.995Z,11.71
2022-09-14T17:36:41.287Z,11.55
2022-09-14T17:39:12.086Z,11.71
2022-09-14T17:41:42.352Z,11.58
2022-09-14T17:44:13.172Z,11.68
2022-09-14T17:46:53.059Z,11.65
2022-09-14T17:49:23.814Z,11.56
2022-09-14T17:51:55.184Z,11.53
2022-09-14T17:54:22.503Z,11.46
2022-09-14T17:56:49.973Z,11.48
2022-09-14T17:59:20.449Z,11.42
2022-09-14T18:01:55.457Z,11.38
2022-09-14T18:04:23.022Z,11.30
2022-09-14T18:06:50.400Z,11.33
2022-09-14T18:09:24.559Z,11.31
2022-09-14T18:11:54.784Z,11.30
2022-09-14T18:14:22.852Z,11.32
2022-09-14T18:16:50.561Z,11.26
2022-09-14T18:19:18.307Z,11.33
2022-09-14T18:21:50.304Z,11.34
2022-09-14T18:24:19.973Z,11.36
2022-09-14T18:26:48.758Z,11.20
2022-09-14T18:29:21.523Z,11.37
2022-09-14T18:31:49.119Z,11.37
2022-09-14T18:34:18.390Z,11.38
2022-09-14T18:36:46.575Z,11.22
2022-09-14T18:39:14.952Z,11.41
2022-09-14T18:41:43.924Z,11.40
2022-09-14T18:44:15.188Z,11.36
2022-09-14T18:46:44.484Z,11.23
2022-09-14T18:49:12.148Z,11.26
2022-09-14T18:51:39.889Z,11.29
2022-09-14T18:54:08.207Z,11.40
2022-09-14T18:56:39.214Z,11.42
2022-09-14T18:59:14.607Z,11.40
2022-09-14T19:01:43.878Z,11.38
2022-09-14T19:04:12.986Z,11.29
2022-09-14T19:06:41.775Z,11.11
2022-09-14T19:09:10.801Z,11.29
2022-09-14T19:11:38.040Z,11.02
2022-09-14T19:14:12.734Z,11.28
2022-09-14T19:16:42.356Z,11.28
2022-09-14T19:19:13.529Z,11.28
2022-09-14T19:21:41.439Z,11.27
2022-09-14T19:24:12.002Z,11.21
2022-09-14T19:26:45.240Z,11.09
2022-09-14T19:29:17.840Z,11.22
2022-09-14T19:31:45.584Z,11.30
2022-09-14T19:34:13.803Z,11.29
2022-09-14T19:36:41.414Z,11.21
2022-09-14T19:39:08.516Z,11.25
2022-09-14T19:41:36.029Z,11.19
2022-09-14T19:44:06.800Z,11.20
2022-09-14T19:46:39.715Z,11.25
2022-09-14T19:49:19.895Z,11.20
2022-09-14T19:51:47.710Z,11.17
2022-09-14T19:54:15.577Z,11.15
2022-09-14T19:56:43.695Z,11.08
2022-09-14T19:59:11.866Z,11.16
2022-09-14T20:01:40.672Z,11.17
2022-09-14T20:04:10.737Z,11.17
2022-09-14T20:06:41.239Z,11.17
2022-09-14T20:09:10.677Z,11.19
2022-09-14T20:11:40.444Z,11.15
2022-09-14T20:14:10.492Z,11.18
2022-09-14T20:16:42.660Z,11.13
2022-09-14T20:19:15.981Z,11.14
2022-09-14T20:21:45.049Z,11.05
2022-09-14T20:24:19.097Z,11.07
2022-09-14T20:26:51.475Z,11.04
2022-09-14T20:29:23.479Z,10.81
2022-09-14T20:31:51.148Z,10.63
2022-09-14T20:34:20.641Z,10.96
2022-09-14T20:36:49.691Z,10.90
2022-09-14T20:39:17.954Z,10.91
2022-09-14T20:41:45.522Z,10.90
2022-09-14T20:44:13.886Z,10.69
2022-09-14T20:46:43.881Z,10.84
2022-09-14T20:49:14.830Z,10.62
2022-09-14T20:51:42.455Z,10.70
2022-09-14T20:54:13.373Z,10.67
2022-09-14T20:56:41.836Z,10.80
2022-09-14T20:59:12.480Z,10.74
2022-09-14T21:04:49.917Z,10.79
2022-09-14T21:07:18.017Z,10.72
2022-09-14T21:09:45.420Z,10.76
2022-09-14T21:12:15.315Z,10.76
2022-09-14T21:14:45.227Z,10.78
2022-09-14T21:17:12.474Z,10.65
2022-09-14T21:19:40.185Z,10.58
2022-09-14T21:22:08.049Z,10.77
2022-09-14T21:24:36.359Z,10.75
2022-09-14T21:27:04.820Z,10.67
2022-09-14T21:29:35.036Z,10.60
2022-09-14T21:32:06.820Z,10.77
2022-09-14T21:34:38.184Z,10.77
2022-09-14T21:37:05.363Z,10.68
2022-09-14T21:39:32.390Z,10.76
2022-09-14T21:41:59.880Z,10.75
2022-09-14T21:44:35.277Z,10.78
2022-09-14T21:47:02.695Z,10.61
2022-09-14T21:49:29.788Z,10.80
2022-09-14T21:52:00.357Z,10.79
2022-09-14T21:54:28.684Z,10.77
2022-09-14T21:56:55.721Z,10.73
2022-09-14T21:59:23.954Z,10.66
2022-09-14T22:01:51.615Z,10.62
2022-09-14T22:04:22.120Z,10.68
2022-09-14T22:06:51.621Z,10.80
2022-09-14T22:09:24.962Z,10.79
2022-09-14T22:11:53.260Z,10.85
2022-09-14T22:14:24.942Z,10.86
2022-09-14T22:16:55.486Z,10.83
2022-09-14T22:19:45.973Z,10.85
2022-09-14T22:22:12.952Z,10.87
2022-09-14T22:24:40.880Z,10.89
2022-09-14T22:27:10.011Z,10.78
2022-09-14T22:29:38.909Z,10.82
2022-09-14T22:32:10.909Z,10.91
2022-09-14T22:34:49.515Z,10.94
2022-09-14T22:37:16.797Z,10.93
2022-09-14T22:39:44.102Z,10.77
2022-09-14T22:42:11.456Z,10.96
2022-09-14T22:44:38.430Z,10.97
2022-09-14T22:47:07.379Z,11.00
2022-09-14T22:49:34.496Z,10.91
2022-09-14T22:52:02.345Z,10.92
2022-09-14T22:54:30.483Z,11.03
2022-09-14T22:56:57.638Z,11.00
2022-09-14T22:59:27.585Z,10.88
2022-09-14T23:01:54.560Z,10.92
2022-09-14T23:04:21.551Z,10.98
2022-09-14T23:06:49.092Z,10.90
2022-09-14T23:09:20.302Z,11.05
2022-09-14T23:11:48.546Z,11.05
2022-09-14T23:14:16.946Z,11.05
2022-09-14T23:16:47.153Z,10.95
2022-09-14T23:19:16.543Z,11.11
2022-09-14T23:21:44.112Z,11.12
2022-09-14T23:24:11.916Z,11.13
2022-09-14T23:26:39.479Z,11.05
2022-09-14T23:29:11.626Z,11.14
2022-09-14T23:31:41.605Z,11.05
2022-09-14T23:34:09.178Z,11.04
2022-09-14T23:36:37.045Z,11.13
2022-09-14T23:39:04.720Z,11.06
2022-09-14T23:41:32.303Z,11.14
2022-09-14T23:43:59.328Z,11.16
2022-09-14T23:46:29.514Z,11.14
2022-09-14T23:49:14.315Z,11.17
2022-09-14T23:51:43.118Z,11.15
2022-09-14T23:54:11.786Z,11.17
2022-09-14T23:56:39.190Z,11.16
2022-09-14T23:59:07.340Z,11.14
